<?xml version="1.0" encoding="utf-8"?>
<gpx xmlns:xsi="http://www.w3.org/2001/XMLSchema-instance" xmlns:xsd="http://www.w3.org/2001/XMLSchema" version="1.1" creator="Shapelink.com" xmlns="http://www.topografix.com/GPX/1/1" xmlns:gpxtpx="http://www.garmin.com/xmlschemas/TrackPointExtension/v1">
  <metadata>
    <name>Övrigt 1.90 km, 2020-06-27</name>
    <desc></desc>
    <author><name>Marian Moron</name></author> 
    <time>2020-06-27T20:23:21Z</time>
  </metadata>
  <trk>
    <name>Övrigt 1.90 km, 2020-06-27</name>
    <trkseg>
      <trkpt lat="51.229719171572" lon="4.457587375271">
        <ele>16.6</ele>
        <time>2020-06-27T20:23:21Z</time>
      </trkpt>
      <trkpt lat="51.229597382565" lon="4.456985973946">
        <ele>12.4</ele>
        <time>2020-06-27T20:24:06Z</time>
      </trkpt>
      <trkpt lat="51.229580115851" lon="4.456893186313">
        <ele>14.4</ele>
        <time>2020-06-27T20:24:10Z</time>
      </trkpt>
      <trkpt lat="51.229669131629" lon="4.456710041798">
        <ele>15</ele>
        <time>2020-06-27T20:24:52Z</time>
      </trkpt>
      <trkpt lat="51.230080263824" lon="4.456565034928">
        <ele>12.2</ele>
        <time>2020-06-27T20:25:27Z</time>
      </trkpt>
      <trkpt lat="51.23053154532" lon="4.456472414933">
        <ele>8.8</ele>
        <time>2020-06-27T20:26:00Z</time>
      </trkpt>
      <trkpt lat="51.23094477299" lon="4.456274266817">
        <ele>5.2</ele>
        <time>2020-06-27T20:26:54Z</time>
      </trkpt>
      <trkpt lat="51.230950891777" lon="4.456133869992">
        <ele>4</ele>
        <time>2020-06-27T20:27:15Z</time>
      </trkpt>
      <trkpt lat="51.230946533189" lon="4.45610553917">
        <ele>3.6</ele>
        <time>2020-06-27T20:27:17Z</time>
      </trkpt>
      <trkpt lat="51.231012750199" lon="4.45595382678">
        <ele>3.6</ele>
        <time>2020-06-27T20:27:32Z</time>
      </trkpt>
      <trkpt lat="51.231147531151" lon="4.456052481743">
        <ele>2.2</ele>
        <time>2020-06-27T20:27:42Z</time>
      </trkpt>
      <trkpt lat="51.231198828379" lon="4.455913342203">
        <ele>2.4</ele>
        <time>2020-06-27T20:27:47Z</time>
      </trkpt>
      <trkpt lat="51.231200504759" lon="4.45586246407">
        <ele>2.2</ele>
        <time>2020-06-27T20:27:49Z</time>
      </trkpt>
      <trkpt lat="51.231213412885" lon="4.455145476344">
        <ele>0</ele>
        <time>2020-06-27T20:28:21Z</time>
      </trkpt>
      <trkpt lat="51.231211485048" lon="4.455037266015">
        <ele>3.8</ele>
        <time>2020-06-27T20:28:28Z</time>
      </trkpt>
      <trkpt lat="51.231144765124" lon="4.454490598497">
        <ele>7.4</ele>
        <time>2020-06-27T20:29:09Z</time>
      </trkpt>
      <trkpt lat="51.230990454345" lon="4.454110982246">
        <ele>6.8</ele>
        <time>2020-06-27T20:30:28Z</time>
      </trkpt>
      <trkpt lat="51.230940162945" lon="4.4539656401">
        <ele>5.6</ele>
        <time>2020-06-27T20:30:43Z</time>
      </trkpt>
      <trkpt lat="51.230924404973" lon="4.45372088862">
        <ele>6</ele>
        <time>2020-06-27T20:31:04Z</time>
      </trkpt>
      <trkpt lat="51.230815943187" lon="4.453011612242">
        <ele>5.2</ele>
        <time>2020-06-27T20:31:42Z</time>
      </trkpt>
      <trkpt lat="51.23079725155" lon="4.45265471094">
        <ele>12.8</ele>
        <time>2020-06-27T20:32:06Z</time>
      </trkpt>
      <trkpt lat="51.230725753943" lon="4.452143750316">
        <ele>18.2</ele>
        <time>2020-06-27T20:32:43Z</time>
      </trkpt>
      <trkpt lat="51.230673115611" lon="4.451837643328">
        <ele>16</ele>
        <time>2020-06-27T20:33:13Z</time>
      </trkpt>
      <trkpt lat="51.230606228049" lon="4.451507983201">
        <ele>11.6</ele>
        <time>2020-06-27T20:33:33Z</time>
      </trkpt>
      <trkpt lat="51.230575885571" lon="4.45139574956">
        <ele>9.8</ele>
        <time>2020-06-27T20:33:43Z</time>
      </trkpt>
      <trkpt lat="51.230548225301" lon="4.45131360694">
        <ele>8.8</ele>
        <time>2020-06-27T20:33:48Z</time>
      </trkpt>
      <trkpt lat="51.230423670267" lon="4.451205396611">
        <ele>9</ele>
        <time>2020-06-27T20:34:13Z</time>
      </trkpt>
      <trkpt lat="51.230449570338" lon="4.451200199833">
        <ele>5</ele>
        <time>2020-06-27T20:34:26Z</time>
      </trkpt>
      <trkpt lat="51.230368265908" lon="4.450759730988">
        <ele>4.8</ele>
        <time>2020-06-27T20:36:51Z</time>
      </trkpt>
      <trkpt lat="51.230756347878" lon="4.450565690003">
        <ele>16.8</ele>
        <time>2020-06-27T20:38:06Z</time>
      </trkpt>
      <trkpt lat="51.231028508171" lon="4.45044356572">
        <ele>23.2</ele>
        <time>2020-06-27T20:38:32Z</time>
      </trkpt>
      <trkpt lat="51.23116521696" lon="4.450594104644">
        <ele>9.6</ele>
        <time>2020-06-27T20:38:44Z</time>
      </trkpt>
      <trkpt lat="51.231192793411" lon="4.450786469249">
        <ele>3</ele>
        <time>2020-06-27T20:38:56Z</time>
      </trkpt>
      <trkpt lat="51.231272253823" lon="4.451043290665">
        <ele>0.8</ele>
        <time>2020-06-27T20:39:13Z</time>
      </trkpt>
      <trkpt lat="51.231381050885" lon="4.45161535534">
        <ele>0</ele>
        <time>2020-06-27T20:39:45Z</time>
      </trkpt>
      <trkpt lat="51.231380380333" lon="4.451667742215">
        <ele>0</ele>
        <time>2020-06-27T20:39:55Z</time>
      </trkpt>
      <trkpt lat="51.231523291728" lon="4.452358410775">
        <ele>2</ele>
        <time>2020-06-27T20:40:39Z</time>
      </trkpt>
      <trkpt lat="51.23150049296" lon="4.452476511746">
        <ele>0</ele>
        <time>2020-06-27T20:41:24Z</time>
      </trkpt>
      <trkpt lat="51.231614654438" lon="4.45306290947">
        <ele>0</ele>
        <time>2020-06-27T20:41:56Z</time>
      </trkpt>
      <trkpt lat="51.231664191467" lon="4.453302547991">
        <ele>0</ele>
        <time>2020-06-27T20:42:10Z</time>
      </trkpt>
      <trkpt lat="51.231676596679" lon="4.45351888483">
        <ele>0</ele>
        <time>2020-06-27T20:42:33Z</time>
      </trkpt>
      <trkpt lat="51.231742897508" lon="4.453789033467">
        <ele>0</ele>
        <time>2020-06-27T20:42:49Z</time>
      </trkpt>
      <trkpt lat="51.231766031552" lon="4.453827841664">
        <ele>0.8</ele>
        <time>2020-06-27T20:42:53Z</time>
      </trkpt>
      <trkpt lat="51.231819256617" lon="4.454205530078">
        <ele>0</ele>
        <time>2020-06-27T20:43:47Z</time>
      </trkpt>
      <trkpt lat="51.231962670926" lon="4.454882200865">
        <ele>0</ele>
        <time>2020-06-27T20:44:28Z</time>
      </trkpt>
      <trkpt lat="51.232006256806" lon="4.455092586555">
        <ele>0</ele>
        <time>2020-06-27T20:44:42Z</time>
      </trkpt>
      <trkpt lat="51.232061158251" lon="4.45533775713">
        <ele>0</ele>
        <time>2020-06-27T20:44:58Z</time>
      </trkpt>
      <trkpt lat="51.232122849035" lon="4.455809993376">
        <ele>0</ele>
        <time>2020-06-27T20:45:28Z</time>
      </trkpt>
      <trkpt lat="51.232254696322" lon="4.45638298006">
        <ele>3.4</ele>
        <time>2020-06-27T20:46:08Z</time>
      </trkpt>
      <trkpt lat="51.232324098454" lon="4.456720016259">
        <ele>0.4</ele>
        <time>2020-06-27T20:46:26Z</time>
      </trkpt>
      <trkpt lat="51.232179091584" lon="4.456750861651">
        <ele>1.8</ele>
        <time>2020-06-27T20:46:55Z</time>
      </trkpt>
      <trkpt lat="51.232040035863" lon="4.456932162148">
        <ele>5.4</ele>
        <time>2020-06-27T20:47:22Z</time>
      </trkpt>
      <trkpt lat="51.231940961805" lon="4.456925708085">
        <ele>6.2</ele>
        <time>2020-06-27T20:47:34Z</time>
      </trkpt>
      <trkpt lat="51.231541480451" lon="4.456593533388">
        <ele>4.2</ele>
        <time>2020-06-27T20:48:07Z</time>
      </trkpt>
      <trkpt lat="51.231130348256" lon="4.456426817397">
        <ele>5.2</ele>
        <time>2020-06-27T20:49:01Z</time>
      </trkpt>
      <trkpt lat="51.231087768204" lon="4.456422961723">
        <ele>5.2</ele>
        <time>2020-06-27T20:49:05Z</time>
      </trkpt>
      <trkpt lat="51.230963380808" lon="4.456437713867">
        <ele>4</ele>
        <time>2020-06-27T20:49:18Z</time>
      </trkpt>
      <trkpt lat="51.230740003173" lon="4.45644081517">
        <ele>10</ele>
        <time>2020-06-27T20:49:45Z</time>
      </trkpt>
      <trkpt lat="51.230548979672" lon="4.456517174279">
        <ele>9.4</ele>
        <time>2020-06-27T20:50:11Z</time>
      </trkpt>
      <trkpt lat="51.230403050793" lon="4.456621361296">
        <ele>9.2</ele>
        <time>2020-06-27T20:50:34Z</time>
      </trkpt>
      <trkpt lat="51.229969455106" lon="4.456769804745">
        <ele>4.4</ele>
        <time>2020-06-27T20:51:20Z</time>
      </trkpt>
      <trkpt lat="51.229801984744" lon="4.457272886383">
        <ele>3</ele>
        <time>2020-06-27T20:51:57Z</time>
      </trkpt>
      <trkpt lat="51.229801230373" lon="4.457902786168">
        <ele>1</ele>
        <time>2020-06-27T20:52:37Z</time>
      </trkpt>
      <trkpt lat="51.229352798723" lon="4.458069585978">
        <ele>4.8</ele>
        <time>2020-06-27T20:53:20Z</time>
      </trkpt>
      <trkpt lat="51.229246264774" lon="4.458104706139">
        <ele>4</ele>
        <time>2020-06-27T20:53:32Z</time>
      </trkpt>
      <trkpt lat="51.229055241273" lon="4.458137814644">
        <ele>4.8</ele>
        <time>2020-06-27T20:53:53Z</time>
      </trkpt>
      <trkpt lat="51.228919286855" lon="4.458186681121">
        <ele>8.6</ele>
        <time>2020-06-27T20:54:17Z</time>
      </trkpt>
      <trkpt lat="51.228983911304" lon="4.458138569015">
        <ele>8.4</ele>
        <time>2020-06-27T20:54:27Z</time>
      </trkpt>
      <trkpt lat="51.229082398629" lon="4.45808199119">
        <ele>7</ele>
        <time>2020-06-27T20:54:38Z</time>
      </trkpt>
      <trkpt lat="51.229416836439" lon="4.457965734237">
        <ele>0</ele>
        <time>2020-06-27T20:55:23Z</time>
      </trkpt>
      <trkpt lat="51.229686398343" lon="4.457865989627">
        <ele>0</ele>
        <time>2020-06-27T20:56:24Z</time>
      </trkpt>
    </trkseg>
  </trk>
</gpx>